createdAt,value
2017-09-03T00:00:00.109Z,11.81
2017-09-03T00:00:18.881Z,11.79
2017-09-03T00:00:23.110Z,11.79
2017-09-03T00:00:27.324Z,11.82
2017-09-03T00:00:31.279Z,11.79
2017-09-03T00:00:35.360Z,11.81
2017-09-03T00:00:39.329Z,11.78
2017-09-03T00:00:43.549Z,11.81
2017-09-03T00:00:47.506Z,11.81
2017-09-03T00:00:51.708Z,11.81
2017-09-03T00:00:55.938Z,11.81
2017-09-03T00:01:00.259Z,11.87
2017-09-03T00:01:04.611Z,11.85
2017-09-03T00:01:08.560Z,11.84
2017-09-03T00:01:12.663Z,11.79
2017-09-03T00:01:16.988Z,11.85
2017-09-03T00:01:21.321Z,11.84
2017-09-03T00:01:25.540Z,11.78
2017-09-03T00:01:29.628Z,11.85
2017-09-03T00:01:33.702Z,11.79
2017-09-03T00:01:37.793Z,11.77
2017-09-03T00:01:42.127Z,11.79
2017-09-03T00:01:46.462Z,11.82
2017-09-03T00:01:50.547Z,11.82
2017-09-03T00:01:54.774Z,11.78
2017-09-03T00:01:59.156Z,11.85
2017-09-03T00:02:03.172Z,11.81
2017-09-03T00:02:07.260Z,11.84
2017-09-03T00:02:11.589Z,11.77
2017-09-03T00:02:15.407Z,11.75
2017-09-03T00:02:19.621Z,11.84
2017-09-03T00:02:23.456Z,11.78
2017-09-03T00:02:27.547Z,11.82
2017-09-03T00:02:31.644Z,11.85
2017-09-03T00:02:35.730Z,11.78
2017-09-03T00:02:40.062Z,11.82
2017-09-03T00:02:44.295Z,11.82
2017-09-03T00:02:48.404Z,11.85
2017-09-03T00:02:52.473Z,11.82
2017-09-03T00:02:56.429Z,11.77
2017-09-03T00:03:00.505Z,11.81
2017-09-03T00:03:04.647Z,11.78
2017-09-03T00:03:09.110Z,11.87
2017-09-03T00:03:13.085Z,11.74
2017-09-03T00:03:17.164Z,11.78
2017-09-03T00:03:21.498Z,11.85
2017-09-03T00:03:25.577Z,11.87
2017-09-03T00:03:29.800Z,11.84
2017-09-03T00:03:34.006Z,11.78
2017-09-03T00:03:37.985Z,11.87
2017-09-03T00:03:42.204Z,11.79
2017-09-03T00:03:46.282Z,11.82
2017-09-03T00:03:50.238Z,11.85
2017-09-03T00:03:54.313Z,11.77
2017-09-03T00:03:58.394Z,11.85
2017-09-03T00:04:02.594Z,11.78
2017-09-03T00:04:06.942Z,11.7
2017-09-03T00:04:11.153Z,11.78
2017-09-03T00:04:15.364Z,11.74
2017-09-03T00:04:19.201Z,11.82
2017-09-03T00:04:23.398Z,11.85
2017-09-03T00:04:27.500Z,11.78
2017-09-03T00:04:31.464Z,11.7
2017-09-03T00:04:35.554Z,11.81
2017-09-03T00:04:39.892Z,11.74
2017-09-03T00:04:43.729Z,11.79
2017-09-03T00:04:47.823Z,11.78
2017-09-03T00:04:51.789Z,11.77
2017-09-03T00:04:55.621Z,11.77
2017-09-03T00:04:59.586Z,11.79
2017-09-03T00:05:03.695Z,11.77
2017-09-03T00:05:08.045Z,11.79
2017-09-03T00:05:12.380Z,11.77
2017-09-03T00:05:16.477Z,11.79
2017-09-03T00:05:20.957Z,11.78
2017-09-03T00:05:24.916Z,11.72
2017-09-03T00:05:29.000Z,11.72
2017-09-03T00:05:32.977Z,11.79
2017-09-03T00:05:37.190Z,11.79
2017-09-03T00:05:41.411Z,11.78
2017-09-03T00:05:45.509Z,11.82
2017-09-03T00:05:49.598Z,11.74
2017-09-03T00:05:53.795Z,11.7
2017-09-03T00:05:57.889Z,11.77
2017-09-03T00:06:01.973Z,11.72
2017-09-03T00:06:06.196Z,11.77
2017-09-03T00:06:10.295Z,11.72
2017-09-03T00:06:14.365Z,11.78
2017-09-03T00:06:18.582Z,11.77
2017-09-03T00:06:22.417Z,11.78
2017-09-03T00:06:26.254Z,11.78
2017-09-03T00:06:30.072Z,11.75
2017-09-03T00:06:34.412Z,11.75
2017-09-03T00:06:38.517Z,11.77
2017-09-03T00:06:42.479Z,11.75
2017-09-03T00:06:46.807Z,11.79
2017-09-03T00:06:50.763Z,11.77
2017-09-03T00:06:54.852Z,11.77
2017-09-03T00:06:59.168Z,11.74
2017-09-03T00:07:03.379Z,11.74
2017-09-03T00:07:07.710Z,11.72
2017-09-03T00:07:11.676Z,11.72
2017-09-03T00:07:15.757Z,11.77
2017-09-03T00:07:19.968Z,11.75
2017-09-03T00:07:23.790Z,11.74
2017-09-03T00:07:28.009Z,11.79
2017-09-03T00:07:32.091Z,11.77
2017-09-03T00:07:36.301Z,11.72
2017-09-03T00:07:40.384Z,11.79
2017-09-03T00:07:44.479Z,11.78
2017-09-03T00:07:48.675Z,11.75
2017-09-03T00:07:52.753Z,11.75
2017-09-03T00:07:57.230Z,11.77
2017-09-03T00:08:01.313Z,11.74
2017-09-03T00:08:05.553Z,11.74
2017-09-03T00:08:09.637Z,11.7
2017-09-03T00:08:13.733Z,11.74
2017-09-03T00:08:17.954Z,11.75
2017-09-03T00:08:22.162Z,11.77
2017-09-03T00:08:26.501Z,11.75
2017-09-03T00:08:30.469Z,11.74
2017-09-03T00:08:34.673Z,11.72
2017-09-03T00:08:38.886Z,11.79
2017-09-03T00:08:42.975Z,11.69
2017-09-03T00:08:47.183Z,11.72
2017-09-03T00:08:51.382Z,11.81
2017-09-03T00:08:55.205Z,11.67
2017-09-03T00:08:59.306Z,11.72
2017-09-03T00:09:03.152Z,11.78
2017-09-03T00:09:07.356Z,11.64
2017-09-03T00:09:11.823Z,11.72
2017-09-03T00:09:15.904Z,11.81
2017-09-03T00:09:19.864Z,11.67
2017-09-03T00:09:23.816Z,11.72
2017-09-03T00:09:27.764Z,11.75
2017-09-03T00:09:31.865Z,11.67
2017-09-03T00:09:35.946Z,11.74
2017-09-03T00:09:39.909Z,11.7
2017-09-03T00:09:44.123Z,11.72
2017-09-03T00:09:48.084Z,11.64
2017-09-03T00:09:52.170Z,11.74
2017-09-03T00:09:56.245Z,11.67
2017-09-03T00:10:00.329Z,11.7
2017-09-03T00:10:04.590Z,11.7
2017-09-03T00:10:08.670Z,11.66
2017-09-03T00:10:12.893Z,11.7
2017-09-03T00:10:17.105Z,11.69
2017-09-03T00:10:21.496Z,11.66
2017-09-03T00:10:25.712Z,11.64
2017-09-03T00:10:29.673Z,11.72
2017-09-03T00:10:34.012Z,11.63
2017-09-03T00:10:38.118Z,11.62
2017-09-03T00:10:42.328Z,11.66
2017-09-03T00:10:46.412Z,11.64
2017-09-03T00:10:50.244Z,11.69
2017-09-03T00:10:54.208Z,11.69
2017-09-03T00:10:58.664Z,11.7
2017-09-03T00:11:03.293Z,11.74
2017-09-03T00:11:07.504Z,11.67
2017-09-03T00:11:11.717Z,11.67
2017-09-03T00:11:15.804Z,11.72
2017-09-03T00:11:20.016Z,11.72
2017-09-03T00:11:24.226Z,11.69
2017-09-03T00:11:28.429Z,11.69
2017-09-03T00:11:32.636Z,11.69
2017-09-03T00:11:36.737Z,11.72
2017-09-03T00:11:41.070Z,11.7
2017-09-03T00:11:45.157Z,11.66
2017-09-03T00:11:49.238Z,11.7
2017-09-03T00:11:53.210Z,11.66
2017-09-03T00:11:57.575Z,11.69
2017-09-03T00:12:01.421Z,11.64
2017-09-03T00:12:05.660Z,11.7
2017-09-03T00:12:09.623Z,11.69
2017-09-03T00:12:13.845Z,11.66
2017-09-03T00:12:18.047Z,11.69
2017-09-03T00:12:22.375Z,11.64
2017-09-03T00:12:26.603Z,11.74
2017-09-03T00:12:30.680Z,11.64
2017-09-03T00:12:34.896Z,11.67
2017-09-03T00:12:39.099Z,11.63
2017-09-03T00:12:43.304Z,11.74
2017-09-03T00:12:47.273Z,11.63
2017-09-03T00:12:51.371Z,11.69
2017-09-03T00:12:55.593Z,11.7
2017-09-03T00:13:00.056Z,11.7
2017-09-03T00:13:04.364Z,11.69
2017-09-03T00:13:08.458Z,11.67
2017-09-03T00:13:12.541Z,11.67
2017-09-03T00:13:16.406Z,11.64
2017-09-03T00:13:20.608Z,11.74
2017-09-03T00:13:24.444Z,11.74
2017-09-03T00:13:28.275Z,11.69
2017-09-03T00:13:32.219Z,11.72
2017-09-03T00:13:36.303Z,11.66
2017-09-03T00:13:40.514Z,11.69
2017-09-03T00:13:44.722Z,11.74
2017-09-03T00:13:49.172Z,11.72
2017-09-03T00:13:53.390Z,11.67
2017-09-03T00:13:57.367Z,11.66
2017-09-03T00:14:01.458Z,11.67
2017-09-03T00:14:05.406Z,11.72
2017-09-03T00:14:09.491Z,11.72
2017-09-03T00:14:13.437Z,11.63
2017-09-03T00:14:17.504Z,11.75
2017-09-03T00:14:21.710Z,11.69
2017-09-03T00:14:25.923Z,11.7
2017-09-03T00:14:29.765Z,11.72
2017-09-03T00:14:33.724Z,11.64
2017-09-03T00:14:37.675Z,11.72
2017-09-03T00:14:41.756Z,11.67
2017-09-03T00:14:45.721Z,11.66
2017-09-03T00:14:49.803Z,11.67
2017-09-03T00:14:53.749Z,11.7
2017-09-03T00:14:57.963Z,11.66
2017-09-03T00:15:02.158Z,11.66
2017-09-03T00:15:06.118Z,11.74
2017-09-03T00:15:10.333Z,11.66
2017-09-03T00:15:14.031Z,11.67
2017-09-03T00:15:18.100Z,11.66
2017-09-03T00:15:22.193Z,11.72
2017-09-03T00:15:26.394Z,11.74
2017-09-03T00:15:30.614Z,11.7
2017-09-03T00:15:34.597Z,11.66
2017-09-03T00:16:10.645Z,11.69
2017-09-03T00:16:14.609Z,11.67
2017-09-03T00:16:18.947Z,11.6
2017-09-03T00:16:22.787Z,11.66
2017-09-03T00:16:26.872Z,11.64
2017-09-03T00:16:30.956Z,11.66
2017-09-03T00:16:35.085Z,11.69
2017-09-03T00:16:39.173Z,11.75
2017-09-03T00:16:43.392Z,11.67
2017-09-03T00:16:47.495Z,11.69
2017-09-03T00:16:51.458Z,11.74
2017-09-03T00:16:55.408Z,11.66
2017-09-03T00:16:59.359Z,11.67
2017-09-03T00:17:03.388Z,11.74
2017-09-03T00:17:07.474Z,11.64
2017-09-03T00:17:11.693Z,11.67
2017-09-03T00:17:15.532Z,11.72
2017-09-03T00:17:19.603Z,11.7
2017-09-03T00:17:23.691Z,11.67
2017-09-03T00:17:27.518Z,11.75
2017-09-03T00:17:31.469Z,11.67
2017-09-03T00:17:35.552Z,11.7
2017-09-03T00:17:39.648Z,11.7
2017-09-03T00:17:43.984Z,11.67
2017-09-03T00:17:47.822Z,11.64
2017-09-03T00:17:51.917Z,11.69
2017-09-03T00:17:56.128Z,11.67
2017-09-03T00:18:00.354Z,11.72
2017-09-03T00:18:04.666Z,11.72
2017-09-03T00:18:08.885Z,11.69
2017-09-03T00:18:13.078Z,11.66
2017-09-03T00:18:17.059Z,11.67
2017-09-03T00:18:21.017Z,11.66
2017-09-03T00:18:25.246Z,11.69
2017-09-03T00:18:29.213Z,11.72
2017-09-03T00:18:33.426Z,11.72
2017-09-03T00:18:37.267Z,11.7
2017-09-03T00:18:41.243Z,11.74
2017-09-03T00:18:45.079Z,11.74
2017-09-03T00:18:49.283Z,11.72
2017-09-03T00:18:53.488Z,11.67
2017-09-03T00:18:57.324Z,11.72
2017-09-03T00:19:01.792Z,11.74
2017-09-03T00:19:05.769Z,11.69
2017-09-03T00:19:09.983Z,11.67
2017-09-03T00:19:13.942Z,11.69
2017-09-03T00:19:18.020Z,11.72
2017-09-03T00:19:21.972Z,11.72
2017-09-03T00:19:26.064Z,11.72
2017-09-03T00:19:30.289Z,11.67
2017-09-03T00:19:34.250Z,11.69
2017-09-03T00:19:38.326Z,11.66
2017-09-03T00:19:42.532Z,11.7
2017-09-03T00:19:46.770Z,11.7
2017-09-03T00:19:50.995Z,11.78
2017-09-03T00:19:54.951Z,11.75
2017-09-03T00:19:59.039Z,11.7
2017-09-03T00:20:03.362Z,11.75
2017-09-03T00:20:07.688Z,11.7
2017-09-03T00:20:12.017Z,11.74
2017-09-03T00:20:16.228Z,11.81
2017-09-03T00:20:20.559Z,11.69
2017-09-03T00:20:24.397Z,11.75
2017-09-03T00:20:28.351Z,11.74
2017-09-03T00:20:32.184Z,11.75
2017-09-03T00:20:36.155Z,11.78
2017-09-03T00:20:40.497Z,11.75
2017-09-03T00:20:44.446Z,11.77
2017-09-03T00:20:48.777Z,11.77
2017-09-03T00:20:52.874Z,11.67
2017-09-03T00:20:57.088Z,11.77
2017-09-03T00:21:01.052Z,11.74
2017-09-03T00:21:05.185Z,11.77
2017-09-03T00:21:09.393Z,11.74
2017-09-03T00:21:13.484Z,11.75
2017-09-03T00:21:17.694Z,11.79
2017-09-03T00:21:21.795Z,11.75
2017-09-03T00:21:25.996Z,11.75
2017-09-03T00:21:29.825Z,11.72
2017-09-03T00:21:34.033Z,11.75
2017-09-03T00:21:38.483Z,11.79
2017-09-03T00:21:42.442Z,11.79
2017-09-03T00:21:46.782Z,11.77
2017-09-03T00:21:50.989Z,11.79
2017-09-03T00:21:55.063Z,11.77
2017-09-03T00:21:59.151Z,11.77
2017-09-03T00:22:03.370Z,11.82
2017-09-03T00:22:07.604Z,11.78
2017-09-03T00:22:11.558Z,11.79
2017-09-03T00:22:15.397Z,11.72
2017-09-03T00:22:19.483Z,11.79
2017-09-03T00:22:23.579Z,11.77
2017-09-03T00:22:27.658Z,11.77
2017-09-03T00:22:31.877Z,11.79
2017-09-03T00:22:35.853Z,11.85
2017-09-03T00:22:39.944Z,11.7
2017-09-03T00:22:43.895Z,11.77
2017-09-03T00:22:48.236Z,11.78
2017-09-03T00:22:52.340Z,11.78
2017-09-03T00:22:56.554Z,11.77
2017-09-03T00:23:00.517Z,11.77
2017-09-03T00:23:05.007Z,11.77
2017-09-03T00:23:09.362Z,11.77
2017-09-03T00:23:13.567Z,11.77
2017-09-03T00:23:17.780Z,11.78
2017-09-03T00:23:22.120Z,11.82
2017-09-03T00:23:26.328Z,11.85
2017-09-03T00:23:30.546Z,11.75
2017-09-03T00:23:34.640Z,11.77
2017-09-03T00:23:38.603Z,11.77
2017-09-03T00:23:42.723Z,11.81
2017-09-03T00:23:46.678Z,11.78
2017-09-03T00:23:50.653Z,11.78
2017-09-03T00:23:54.495Z,11.79
2017-09-03T00:23:58.868Z,11.85
2017-09-03T00:24:03.119Z,11.77
2017-09-03T00:24:07.322Z,11.78
2017-09-03T00:24:11.413Z,11.77
2017-09-03T00:24:15.241Z,11.81
2017-09-03T00:24:19.448Z,11.78
2017-09-03T00:24:23.417Z,11.81
2017-09-03T00:24:27.515Z,11.77
2017-09-03T00:24:31.482Z,11.81
2017-09-03T00:24:35.439Z,11.77
2017-09-03T00:24:39.652Z,11.72
2017-09-03T00:24:43.922Z,11.7
2017-09-03T00:24:47.871Z,11.7
2017-09-03T00:24:51.713Z,11.82
2017-09-03T00:24:55.792Z,11.72
2017-09-03T00:25:00.009Z,11.81
2017-09-03T00:25:04.684Z,11.81
2017-09-03T00:25:08.766Z,11.79
2017-09-03T00:25:12.846Z,11.78
2017-09-03T00:25:17.069Z,11.72
2017-09-03T00:25:21.155Z,11.78
2017-09-03T00:25:25.236Z,11.74
2017-09-03T00:25:29.079Z,11.79
2017-09-03T00:25:33.158Z,11.77
2017-09-03T00:25:37.245Z,11.84
2017-09-03T00:25:41.327Z,11.77
2017-09-03T00:25:45.415Z,11.78
2017-09-03T00:25:49.626Z,11.81
2017-09-03T00:25:53.456Z,11.72
2017-09-03T00:25:57.535Z,11.84
2017-09-03T00:26:01.622Z,11.81
2017-09-03T00:26:05.996Z,11.74
2017-09-03T00:26:10.213Z,11.78
2017-09-03T00:26:14.158Z,11.79
2017-09-03T00:26:17.997Z,11.79
2017-09-03T00:26:22.211Z,11.78
2017-09-03T00:26:26.057Z,11.77
2017-09-03T00:26:30.007Z,11.72
2017-09-03T00:26:34.205Z,11.81
2017-09-03T00:26:38.420Z,11.78
2017-09-03T00:26:42.642Z,11.77
2017-09-03T00:26:46.872Z,11.74
2017-09-03T00:26:51.239Z,11.78
2017-09-03T00:26:55.047Z,11.81
2017-09-03T00:26:59.383Z,11.81
2017-09-03T00:27:03.708Z,11.78
2017-09-03T00:27:07.786Z,11.81
2017-09-03T00:27:11.983Z,11.74
2017-09-03T00:27:16.189Z,11.77
2017-09-03T00:27:20.518Z,11.79
2017-09-03T00:27:24.475Z,11.78
2017-09-03T00:27:28.685Z,11.75
2017-09-03T00:27:32.899Z,11.72
2017-09-03T00:27:37.117Z,11.75
2017-09-03T00:27:41.218Z,11.78
2017-09-03T00:27:45.305Z,11.78
2017-09-03T00:27:49.653Z,11.78
2017-09-03T00:27:53.618Z,11.78
2017-09-03T00:27:57.468Z,11.77
2017-09-03T00:28:01.311Z,11.82
2017-09-03T00:28:05.520Z,11.78
2017-09-03T00:28:09.741Z,11.81
2017-09-03T00:28:14.079Z,11.79
2017-09-03T00:28:18.286Z,11.79
2017-09-03T00:28:22.121Z,11.79
2017-09-03T00:28:26.213Z,11.77
2017-09-03T00:28:30.546Z,11.79
2017-09-03T00:28:34.751Z,11.81
2017-09-03T00:28:39.081Z,11.78
2017-09-03T00:28:43.302Z,11.77
2017-09-03T00:28:47.387Z,11.79
2017-09-03T00:28:51.461Z,11.78
2017-09-03T00:28:55.297Z,11.77
2017-09-03T00:28:59.527Z,11.75
2017-09-03T00:29:03.743Z,11.84
2017-09-03T00:29:07.832Z,11.72
2017-09-03T00:29:12.046Z,11.79
2017-09-03T00:29:16.414Z,11.77
2017-09-03T00:29:20.638Z,11.74
2017-09-03T00:29:25.108Z,11.78
2017-09-03T00:29:29.334Z,11.77
2017-09-03T00:29:33.800Z,11.79
2017-09-03T00:29:38.012Z,11.77
2017-09-03T00:29:42.235Z,11.78
2017-09-03T00:29:46.568Z,11.78
2017-09-03T00:29:50.529Z,11.85
2017-09-03T00:29:54.501Z,11.72
2017-09-03T00:29:58.725Z,11.74
2017-09-03T00:30:02.822Z,11.72
2017-09-03T00:30:06.673Z,11.74
2017-09-03T00:30:10.752Z,11.72
2017-09-03T00:30:14.705Z,11.78
2017-09-03T00:30:18.916Z,11.79
2017-09-03T00:30:22.883Z,11.7
2017-09-03T00:30:27.103Z,11.72
2017-09-03T00:30:31.196Z,11.72
2017-09-03T00:30:35.668Z,11.82
2017-09-03T00:30:40.173Z,11.79
2017-09-03T00:30:44.631Z,11.77
2017-09-03T00:30:48.727Z,11.82
2017-09-03T00:30:52.926Z,11.81
2017-09-03T00:30:56.883Z,11.79
2017-09-03T00:31:00.719Z,11.72
2017-09-03T00:31:04.672Z,11.85
2017-09-03T00:31:08.748Z,11.77
2017-09-03T00:31:13.074Z,11.75
2017-09-03T00:31:17.382Z,11.85
2017-09-03T00:31:21.598Z,11.77
2017-09-03T00:31:25.851Z,11.77
2017-09-03T00:31:30.062Z,11.82
2017-09-03T00:31:34.391Z,11.84
2017-09-03T00:31:38.600Z,11.77
2017-09-03T00:31:42.966Z,11.7
2017-09-03T00:31:47.057Z,11.75
2017-09-03T00:31:51.390Z,11.78
2017-09-03T00:31:55.725Z,11.77
2017-09-03T00:31:59.563Z,11.79
2017-09-03T00:32:04.003Z,11.77
2017-09-03T00:32:08.221Z,11.78
2017-09-03T00:32:12.057Z,11.7
2017-09-03T00:32:16.146Z,11.72
2017-09-03T00:32:20.116Z,11.85
2017-09-03T00:32:24.434Z,11.77
2017-09-03T00:32:28.275Z,11.79
2017-09-03T00:32:32.349Z,11.7
2017-09-03T00:32:36.560Z,11.84
2017-09-03T00:32:41.030Z,11.72
2017-09-03T00:32:45.399Z,11.78
2017-09-03T00:32:49.484Z,11.77
2017-09-03T00:32:53.821Z,11.78
2017-09-03T00:32:57.789Z,11.72
2017-09-03T00:33:01.885Z,11.82
2017-09-03T00:33:05.854Z,11.77
2017-09-03T00:33:10.069Z,11.74
2017-09-03T00:33:14.282Z,11.77
2017-09-03T00:33:18.362Z,11.77
2017-09-03T00:33:22.695Z,11.78
2017-09-03T00:33:26.652Z,11.78
2017-09-03T00:33:30.725Z,11.74
2017-09-03T00:33:35.061Z,11.78
2017-09-03T00:33:39.254Z,11.75
2017-09-03T00:33:43.460Z,11.72
2017-09-03T00:33:47.671Z,11.75
2017-09-03T00:33:51.635Z,11.7
2017-09-03T00:33:55.852Z,11.78
2017-09-03T00:34:00.063Z,11.81
2017-09-03T00:34:04.489Z,11.74
2017-09-03T00:34:08.828Z,11.75
2017-09-03T00:34:13.039Z,11.77
2017-09-03T00:34:17.240Z,11.7
2017-09-03T00:34:21.211Z,11.79
2017-09-03T00:34:25.411Z,11.77
2017-09-03T00:34:29.497Z,11.78
2017-09-03T00:34:33.703Z,11.77
2017-09-03T00:34:38.034Z,11.69
2017-09-03T00:34:42.243Z,11.74
2017-09-03T00:34:46.453Z,11.75
2017-09-03T00:34:50.417Z,11.77
2017-09-03T00:34:54.381Z,11.77
2017-09-03T00:34:58.343Z,11.74
2017-09-03T00:35:02.698Z,11.77
2017-09-03T00:35:06.789Z,11.72
2017-09-03T00:35:11.132Z,11.75
2017-09-03T00:35:15.079Z,11.69
2017-09-03T00:35:19.178Z,11.75
2017-09-03T00:35:23.401Z,11.67
2017-09-03T00:35:27.613Z,11.75
2017-09-03T00:35:31.805Z,11.75
2017-09-03T00:35:35.774Z,11.77
2017-09-03T00:35:39.991Z,11.7
2017-09-03T00:35:43.954Z,11.7
2017-09-03T00:35:47.892Z,11.72
2017-09-03T00:35:51.850Z,11.75
2017-09-03T00:35:55.946Z,11.67
2017-09-03T00:36:00.028Z,11.75
2017-09-03T00:36:03.862Z,11.69
2017-09-03T00:36:08.075Z,11.64
2017-09-03T00:36:12.275Z,11.69
2017-09-03T00:36:16.360Z,11.67
2017-09-03T00:36:20.440Z,11.67
2017-09-03T00:36:24.522Z,11.69
2017-09-03T00:36:28.627Z,11.66
2017-09-03T00:36:32.717Z,11.66
2017-09-03T00:36:36.803Z,11.69
2017-09-03T00:36:41.019Z,11.66
2017-09-03T00:36:45.242Z,11.78
2017-09-03T00:36:49.079Z,11.72
2017-09-03T00:36:53.283Z,11.69
2017-09-03T00:36:57.748Z,11.72
2017-09-03T00:37:01.839Z,11.7
2017-09-03T00:37:06.014Z,11.72
2017-09-03T00:37:10.215Z,11.67
2017-09-03T00:37:14.315Z,11.66
2017-09-03T00:37:18.408Z,11.69
2017-09-03T00:37:22.609Z,11.7
2017-09-03T00:37:26.832Z,11.7
2017-09-03T00:37:30.920Z,11.64
2017-09-03T00:37:34.876Z,11.66
2017-09-03T00:37:39.090Z,11.66
2017-09-03T00:37:43.441Z,11.66
2017-09-03T00:37:47.521Z,11.69
2017-09-03T00:37:51.493Z,11.69
2017-09-03T00:37:55.688Z,11.66
2017-09-03T00:37:59.524Z,11.74
2017-09-03T00:38:04.189Z,11.7
2017-09-03T00:38:08.402Z,11.69
2017-09-03T00:38:12.485Z,11.69
2017-09-03T00:38:16.699Z,11.66
2017-09-03T00:38:20.908Z,11.74
2017-09-03T00:38:24.999Z,11.64
2017-09-03T00:38:29.208Z,11.7
2017-09-03T00:38:33.422Z,11.62
2017-09-03T00:38:37.637Z,11.69
2017-09-03T00:38:41.719Z,11.7
2017-09-03T00:38:45.682Z,11.63
2017-09-03T00:38:49.873Z,11.69
2017-09-03T00:38:53.936Z,11.74
2017-09-03T00:38:58.028Z,11.7
2017-09-03T00:39:02.426Z,11.7
2017-09-03T00:39:06.503Z,11.7
2017-09-03T00:39:10.706Z,11.7
2017-09-03T00:39:14.923Z,11.7
2017-09-03T00:39:19.040Z,11.66
2017-09-03T00:39:23.120Z,11.66
2017-09-03T00:39:26.963Z,11.69
2017-09-03T00:39:30.913Z,11.69
2017-09-03T00:39:34.980Z,11.64
2017-09-03T00:39:38.940Z,11.69
2017-09-03T00:39:42.905Z,11.67
2017-09-03T00:39:47.105Z,11.66
2017-09-03T00:39:51.314Z,11.72
2017-09-03T00:39:55.284Z,11.69
2017-09-03T00:39:59.250Z,11.7
2017-09-03T00:40:03.458Z,11.66
2017-09-03T00:40:07.798Z,11.62
2017-09-03T00:40:11.751Z,11.69
2017-09-03T00:40:15.821Z,11.64
2017-09-03T00:40:20.041Z,11.7
2017-09-03T00:40:24.239Z,11.74
2017-09-03T00:40:28.583Z,11.63
2017-09-03T00:40:32.662Z,11.69
2017-09-03T00:40:36.878Z,11.69
2017-09-03T00:40:41.089Z,11.69
2017-09-03T00:40:45.300Z,11.69
2017-09-03T00:40:49.638Z,11.62
2017-09-03T00:40:53.854Z,11.67
2017-09-03T00:40:58.068Z,11.7
2017-09-03T00:41:02.024Z,11.69
2017-09-03T00:41:06.241Z,11.7
2017-09-03T00:41:10.561Z,11.67
2017-09-03T00:41:14.906Z,11.67
2017-09-03T00:41:18.979Z,11.69
2017-09-03T00:41:23.208Z,11.74
2017-09-03T00:41:27.294Z,11.69
2017-09-03T00:41:31.378Z,11.72
2017-09-03T00:41:35.591Z,11.67
2017-09-03T00:41:39.547Z,11.69
2017-09-03T00:41:43.757Z,11.7
2017-09-03T00:41:48.087Z,11.75
2017-09-03T00:41:52.553Z,11.75
2017-09-03T00:41:56.500Z,11.67
2017-09-03T00:42:00.955Z,11.7
2017-09-03T00:42:05.261Z,11.67
2017-09-03T00:42:09.109Z,11.66
2017-09-03T00:42:12.943Z,11.64
2017-09-03T00:42:17.160Z,11.74
2017-09-03T00:42:21.249Z,11.7
2017-09-03T00:42:25.465Z,11.69
2017-09-03T00:42:29.677Z,11.64
2017-09-03T00:42:33.893Z,11.67
2017-09-03T00:42:38.111Z,11.63
2017-09-03T00:42:42.329Z,11.67
2017-09-03T00:42:46.537Z,11.69
2017-09-03T00:42:50.757Z,11.69
2017-09-03T00:42:54.858Z,11.67
2017-09-03T00:42:58.806Z,11.7
2017-09-03T00:43:02.926Z,11.62
2017-09-03T00:43:07.396Z,11.7
2017-09-03T00:43:11.354Z,11.66
2017-09-03T00:43:15.572Z,11.66
2017-09-03T00:43:19.903Z,11.69
2017-09-03T00:43:24.113Z,11.7
2017-09-03T00:43:28.202Z,11.63
2017-09-03T00:43:32.270Z,11.75
2017-09-03T00:43:36.342Z,11.6
2017-09-03T00:43:40.550Z,11.66
2017-09-03T00:43:44.892Z,11.72
2017-09-03T00:43:49.231Z,11.74
2017-09-03T00:43:53.312Z,11.66
2017-09-03T00:43:57.384Z,11.67
2017-09-03T00:44:01.461Z,11.63
2017-09-03T00:44:05.921Z,11.7
2017-09-03T00:44:10.129Z,11.74
2017-09-03T00:44:14.331Z,11.69
2017-09-03T00:44:18.330Z,11.67
2017-09-03T00:44:22.547Z,11.66
2017-09-03T00:44:26.628Z,11.67
2017-09-03T00:44:30.602Z,11.63
2017-09-03T00:44:34.558Z,11.63
2017-09-03T00:44:38.768Z,11.66
2017-09-03T00:44:42.983Z,11.69
2017-09-03T00:44:47.067Z,11.72
2017-09-03T00:44:51.148Z,11.63
2017-09-03T00:44:54.973Z,11.66
2017-09-03T00:44:59.060Z,11.75
2017-09-03T00:45:03.263Z,11.75
2017-09-03T00:45:07.618Z,11.7
2017-09-03T00:45:11.463Z,11.69
2017-09-03T00:45:15.527Z,11.72
2017-09-03T00:45:19.613Z,11.63
2017-09-03T00:45:23.580Z,11.67
2017-09-03T00:45:27.779Z,11.69
2017-09-03T00:45:31.732Z,11.67
2017-09-03T00:45:35.689Z,11.64
2017-09-03T00:45:39.944Z,11.7
2017-09-03T00:45:44.025Z,11.69
2017-09-03T00:45:48.223Z,11.7
2017-09-03T00:45:52.059Z,11.67
2017-09-03T00:45:56.151Z,11.7
2017-09-03T00:46:00.113Z,11.74
2017-09-03T00:46:04.330Z,11.63
2017-09-03T00:46:08.313Z,11.67
2017-09-03T00:46:12.672Z,11.74
2017-09-03T00:46:16.868Z,11.66
2017-09-03T00:46:20.953Z,11.69
2017-09-03T00:46:25.160Z,11.69
2017-09-03T00:46:29.256Z,11.7
2017-09-03T00:46:33.341Z,11.64
2017-09-03T00:46:37.442Z,11.63
2017-09-03T00:46:41.399Z,11.69
2017-09-03T00:46:45.484Z,11.66
2017-09-03T00:46:49.694Z,11.67
2017-09-03T00:46:53.885Z,11.67
2017-09-03T00:46:58.106Z,11.7
2017-09-03T00:47:02.194Z,11.69
2017-09-03T00:47:06.149Z,11.69
2017-09-03T00:47:10.001Z,11.62
2017-09-03T00:47:13.950Z,11.69
2017-09-03T00:47:18.053Z,11.63
2017-09-03T00:47:22.011Z,11.67
2017-09-03T00:47:25.986Z,11.7
2017-09-03T00:47:30.067Z,11.67
2017-09-03T00:47:34.021Z,11.66
2017-09-03T00:47:38.235Z,11.6
2017-09-03T00:47:42.445Z,11.67
2017-09-03T00:47:46.795Z,11.66
2017-09-03T00:47:50.754Z,11.74
2017-09-03T00:47:54.846Z,11.69
2017-09-03T00:47:58.923Z,11.63
2017-09-03T00:48:35.118Z,11.69
2017-09-03T00:48:39.465Z,11.6
2017-09-03T00:48:43.425Z,11.72
2017-09-03T00:48:47.752Z,11.72
2017-09-03T00:48:51.726Z,11.66
2017-09-03T00:48:55.818Z,11.66
2017-09-03T00:48:59.932Z,11.66
2017-09-03T00:49:03.889Z,11.72
2017-09-03T00:49:07.971Z,11.6
2017-09-03T00:49:12.068Z,11.63
2017-09-03T00:49:16.047Z,11.69
2017-09-03T00:49:20.135Z,11.72
2017-09-03T00:49:24.207Z,11.63
2017-09-03T00:49:28.174Z,11.66
2017-09-03T00:49:31.991Z,11.72
2017-09-03T00:49:36.076Z,11.67
2017-09-03T00:49:40.288Z,11.67
2017-09-03T00:49:44.247Z,11.69
2017-09-03T00:49:48.209Z,11.66
2017-09-03T00:49:52.408Z,11.62
2017-09-03T00:49:56.122Z,11.64
2017-09-03T00:50:00.460Z,11.77
2017-09-03T00:50:04.809Z,11.7
2017-09-03T00:50:09.025Z,11.67
2017-09-03T00:50:13.104Z,11.72
2017-09-03T00:50:17.229Z,11.72
2017-09-03T00:50:21.433Z,11.67
2017-09-03T00:50:25.382Z,11.66
2017-09-03T00:50:29.736Z,11.7
2017-09-03T00:50:33.838Z,11.66
2017-09-03T00:50:38.040Z,11.7
2017-09-03T00:50:42.250Z,11.64
2017-09-03T00:50:46.575Z,11.7
2017-09-03T00:50:50.776Z,11.7
2017-09-03T00:50:54.625Z,11.63
2017-09-03T00:50:58.964Z,11.67
2017-09-03T00:51:03.105Z,11.64
2017-09-03T00:51:07.067Z,11.72
2017-09-03T00:51:11.142Z,11.63
2017-09-03T00:51:15.480Z,11.67
2017-09-03T00:51:19.807Z,11.7
2017-09-03T00:51:24.100Z,11.64
2017-09-03T00:51:27.827Z,11.7
2017-09-03T00:51:31.799Z,11.75
2017-09-03T00:51:35.775Z,11.75
2017-09-03T00:51:39.992Z,11.63
2017-09-03T00:51:43.952Z,11.63
2017-09-03T00:51:48.149Z,11.7
2017-09-03T00:51:52.348Z,11.7
2017-09-03T00:51:56.696Z,11.77
2017-09-03T00:52:00.899Z,11.67
2017-09-03T00:52:05.093Z,11.69
2017-09-03T00:52:08.942Z,11.62
2017-09-03T00:52:13.043Z,11.67
2017-09-03T00:52:17.132Z,11.69
2017-09-03T00:52:20.964Z,11.67
2017-09-03T00:52:25.306Z,11.66
2017-09-03T00:52:29.383Z,11.56
2017-09-03T00:52:33.619Z,11.72
2017-09-03T00:52:37.584Z,11.66
2017-09-03T00:52:41.683Z,11.67
2017-09-03T00:52:45.772Z,11.69
2017-09-03T00:52:49.975Z,11.63
2017-09-03T00:52:54.044Z,11.7
2017-09-03T00:52:58.395Z,11.66
2017-09-03T00:53:02.601Z,11.63
2017-09-03T00:53:06.680Z,11.64
2017-09-03T00:53:10.755Z,11.6
2017-09-03T00:53:14.973Z,11.72
2017-09-03T00:53:19.192Z,11.69
2017-09-03T00:53:23.149Z,11.6
2017-09-03T00:53:27.467Z,11.67
2017-09-03T00:53:31.545Z,11.69
2017-09-03T00:53:35.499Z,11.7
2017-09-03T00:53:39.445Z,11.64
2017-09-03T00:53:43.532Z,11.69
2017-09-03T00:53:47.612Z,11.74
2017-09-03T00:53:51.950Z,11.63
2017-09-03T00:53:55.776Z,11.72
2017-09-03T00:53:59.972Z,11.64
2017-09-03T00:54:04.189Z,11.72
2017-09-03T00:54:08.405Z,11.6
2017-09-03T00:54:12.733Z,11.72
2017-09-03T00:54:16.948Z,11.66
2017-09-03T00:54:21.158Z,11.72
2017-09-03T00:54:25.246Z,11.74
2017-09-03T00:54:29.457Z,11.63
2017-09-03T00:54:33.409Z,11.67
2017-09-03T00:54:37.626Z,11.72